Terminal Aerodrome Forecast
Issued by NWS

Home | Current Version | Previous Version | Text Only | Print | Product List | Glossary On
Versions: 1 2 3 4 5 6 7 8 9 10 11 12 13 14 15 16 17 18 19 20 21 22
000
FTUS43 KDVN 251127
TAFBRL
TAF
KBRL 251127Z 2512/2612 31006KT P6SM FEW006
     FM251500 35008KT P6SM SCT015
     FM251900 VRB04KT P6SM SCT035
     FM260000 13004KT P6SM SCT050=

USA.gov is the U.S. government's official web portal to all federal, state and local government web resources and services.